sensor_id;sensor_type;location;lat;lon;timestamp;P1;durP1;ratioP1;P2;durP2;ratioP2
59366;SDS011;45163;47.690;11.770;2023-02-02T00:01:46;7.27;;;1.80;;
59366;SDS011;45163;47.690;11.770;2023-02-02T00:04:15;4.47;;;1.90;;
59366;SDS011;45163;47.690;11.770;2023-02-02T00:07:01;10.03;;;2.33;;
59366;SDS011;45163;47.690;11.770;2023-02-02T00:09:30;6.97;;;2.00;;
59366;SDS011;45163;47.690;11.770;2023-02-02T00:11:57;4.03;;;1.73;;
59366;SDS011;45163;47.690;11.770;2023-02-02T00:14:24;7.63;;;1.63;;
59366;SDS011;45163;47.690;11.770;2023-02-02T00:16:51;4.90;;;2.10;;
59366;SDS011;45163;47.690;11.770;2023-02-02T00:19:19;1.90;;;1.50;;
59366;SDS011;45163;47.690;11.770;2023-02-02T00:21:54;5.23;;;1.63;;
59366;SDS011;45163;47.690;11.770;2023-02-02T00:24:21;7.03;;;1.77;;
59366;SDS011;45163;47.690;11.770;2023-02-02T00:26:48;6.63;;;2.13;;
59366;SDS011;45163;47.690;11.770;2023-02-02T00:29:18;5.73;;;1.60;;
59366;SDS011;45163;47.690;11.770;2023-02-02T00:31:45;6.10;;;1.90;;
59366;SDS011;45163;47.690;11.770;2023-02-02T00:34:12;6.07;;;1.70;;
59366;SDS011;45163;47.690;11.770;2023-02-02T00:36:39;4.67;;;1.70;;
59366;SDS011;45163;47.690;11.770;2023-02-02T00:39:06;2.53;;;1.40;;
59366;SDS011;45163;47.690;11.770;2023-02-02T00:41:33;4.90;;;1.40;;
59366;SDS011;45163;47.690;11.770;2023-02-02T00:43:59;5.53;;;1.80;;
59366;SDS011;45163;47.690;11.770;2023-02-02T00:46:43;4.20;;;1.70;;
59366;SDS011;45163;47.690;11.770;2023-02-02T00:49:09;3.37;;;1.50;;
59366;SDS011;45163;47.690;11.770;2023-02-02T00:51:36;3.00;;;1.40;;
59366;SDS011;45163;47.690;11.770;2023-02-02T00:54:02;6.63;;;1.83;;
59366;SDS011;45163;47.690;11.770;2023-02-02T00:56:29;5.73;;;1.83;;
59366;SDS011;45163;47.690;11.770;2023-02-02T00:58:55;2.90;;;1.50;;
59366;SDS011;45163;47.690;11.770;2023-02-02T01:01:21;4.57;;;1.40;;
59366;SDS011;45163;47.690;11.770;2023-02-02T01:03:48;3.63;;;1.60;;
59366;SDS011;45163;47.690;11.770;2023-02-02T01:06:15;4.73;;;1.60;;
59366;SDS011;45163;47.690;11.770;2023-02-02T01:08:41;4.50;;;1.73;;
59366;SDS011;45163;47.690;11.770;2023-02-02T01:11:07;3.23;;;1.50;;
59366;SDS011;45163;47.690;11.770;2023-02-02T01:13:33;3.97;;;1.70;;
59366;SDS011;45163;47.690;11.770;2023-02-02T01:16:00;4.40;;;1.50;;
59366;SDS011;45163;47.690;11.770;2023-02-02T01:18:28;6.63;;;1.87;;
59366;SDS011;45163;47.690;11.770;2023-02-02T01:21:01;10.40;;;1.93;;
59366;SDS011;45163;47.690;11.770;2023-02-02T01:23:34;8.07;;;1.40;;
59366;SDS011;45163;47.690;11.770;2023-02-02T01:26:02;5.53;;;1.70;;
59366;SDS011;45163;47.690;11.770;2023-02-02T01:28:30;4.10;;;2.13;;
59366;SDS011;45163;47.690;11.770;2023-02-02T01:30:57;6.73;;;1.67;;
59366;SDS011;45163;47.690;11.770;2023-02-02T01:33:23;7.03;;;1.70;;
59366;SDS011;45163;47.690;11.770;2023-02-02T01:35:54;2.90;;;1.50;;
59366;SDS011;45163;47.690;11.770;2023-02-02T01:38:21;1.83;;;1.30;;
59366;SDS011;45163;47.690;11.770;2023-02-02T01:40:49;5.37;;;1.50;;
59366;SDS011;45163;47.690;11.770;2023-02-02T01:43:24;4.10;;;1.30;;
59366;SDS011;45163;47.690;11.770;2023-02-02T01:45:53;4.50;;;1.50;;
59366;SDS011;45163;47.690;11.770;2023-02-02T01:48:21;2.50;;;1.23;;
59366;SDS011;45163;47.690;11.770;2023-02-02T01:50:58;4.30;;;1.47;;
59366;SDS011;45163;47.690;11.770;2023-02-02T01:53:28;6.23;;;1.63;;
59366;SDS011;45163;47.690;11.770;2023-02-02T01:55:55;9.07;;;1.90;;
59366;SDS011;45163;47.690;11.770;2023-02-02T01:58:23;8.23;;;1.60;;
59366;SDS011;45163;47.690;11.770;2023-02-02T02:00:53;4.43;;;1.80;;
59366;SDS011;45163;47.690;11.770;2023-02-02T02:03:20;4.73;;;1.43;;
59366;SDS011;45163;47.690;11.770;2023-02-02T02:05:50;5.03;;;1.53;;
59366;SDS011;45163;47.690;11.770;2023-02-02T02:08:21;3.27;;;1.30;;
59366;SDS011;45163;47.690;11.770;2023-02-02T02:11:02;8.47;;;1.37;;
59366;SDS011;45163;47.690;11.770;2023-02-02T02:13:29;4.10;;;1.23;;
59366;SDS011;45163;47.690;11.770;2023-02-02T02:16:21;3.27;;;1.20;;
59366;SDS011;45163;47.690;11.770;2023-02-02T02:18:56;5.03;;;1.40;;
59366;SDS011;45163;47.690;11.770;2023-02-02T02:25:13;2.17;;;1.40;;
59366;SDS011;45163;47.690;11.770;2023-02-02T02:28:17;4.77;;;1.40;;
59366;SDS011;45163;47.690;11.770;2023-02-02T02:38:47;5.07;;;1.40;;
59366;SDS011;45163;47.690;11.770;2023-02-02T02:41:20;3.93;;;1.50;;
59366;SDS011;45163;47.690;11.770;2023-02-02T02:43:54;3.77;;;1.60;;
59366;SDS011;45163;47.690;11.770;2023-02-02T02:46:25;5.30;;;1.60;;
59366;SDS011;45163;47.690;11.770;2023-02-02T02:48:52;8.87;;;2.17;;
59366;SDS011;45163;47.690;11.770;2023-02-02T02:54:24;5.23;;;1.70;;
59366;SDS011;45163;47.690;11.770;2023-02-02T02:59:51;10.70;;;1.70;;
59366;SDS011;45163;47.690;11.770;2023-02-02T03:02:46;1.83;;;1.50;;
59366;SDS011;45163;47.690;11.770;2023-02-02T03:10:37;7.83;;;1.70;;
59366;SDS011;45163;47.690;11.770;2023-02-02T03:13:06;7.20;;;1.90;;
59366;SDS011;45163;47.690;11.770;2023-02-02T03:15:35;3.33;;;1.40;;
59366;SDS011;45163;47.690;11.770;2023-02-02T03:18:01;3.07;;;1.50;;
59366;SDS011;45163;47.690;11.770;2023-02-02T03:20:27;2.77;;;1.40;;
59366;SDS011;45163;47.690;11.770;2023-02-02T03:22:53;4.73;;;1.50;;
59366;SDS011;45163;47.690;11.770;2023-02-02T03:25:19;3.03;;;1.40;;
59366;SDS011;45163;47.690;11.770;2023-02-02T03:27:45;2.97;;;1.40;;
59366;SDS011;45163;47.690;11.770;2023-02-02T03:30:11;5.47;;;1.60;;
59366;SDS011;45163;47.690;11.770;2023-02-02T03:32:38;5.00;;;1.63;;
59366;SDS011;45163;47.690;11.770;2023-02-02T03:35:05;4.43;;;1.70;;
59366;SDS011;45163;47.690;11.770;2023-02-02T03:37:31;4.43;;;1.40;;
59366;SDS011;45163;47.690;11.770;2023-02-02T03:39:57;5.97;;;1.63;;
59366;SDS011;45163;47.690;11.770;2023-02-02T03:42:23;5.23;;;1.70;;
59366;SDS011;45163;47.690;11.770;2023-02-02T03:44:49;4.07;;;1.60;;
59366;SDS011;45163;47.690;11.770;2023-02-02T03:47:15;5.80;;;1.50;;
59366;SDS011;45163;47.690;11.770;2023-02-02T03:49:41;6.53;;;1.77;;
59366;SDS011;45163;47.690;11.770;2023-02-02T03:52:07;7.20;;;1.80;;
59366;SDS011;45163;47.690;11.770;2023-02-02T03:54:33;1.33;;;1.20;;
59366;SDS011;45163;47.690;11.770;2023-02-02T03:56:59;2.90;;;1.30;;
59366;SDS011;45163;47.690;11.770;2023-02-02T03:59:25;2.77;;;1.30;;
59366;SDS011;45163;47.690;11.770;2023-02-02T04:01:51;3.13;;;1.37;;
59366;SDS011;45163;47.690;11.770;2023-02-02T04:04:17;3.07;;;1.50;;
59366;SDS011;45163;47.690;11.770;2023-02-02T04:06:43;3.03;;;1.10;;
59366;SDS011;45163;47.690;11.770;2023-02-02T04:09:09;2.20;;;1.10;;
59366;SDS011;45163;47.690;11.770;2023-02-02T04:11:35;1.90;;;1.10;;
59366;SDS011;45163;47.690;11.770;2023-02-02T04:14:01;1.83;;;0.93;;
59366;SDS011;45163;47.690;11.770;2023-02-02T04:16:27;2.53;;;1.10;;
59366;SDS011;45163;47.690;11.770;2023-02-02T04:18:54;3.80;;;1.17;;
59366;SDS011;45163;47.690;11.770;2023-02-02T04:21:20;3.50;;;1.40;;
59366;SDS011;45163;47.690;11.770;2023-02-02T04:23:46;4.20;;;1.23;;
59366;SDS011;45163;47.690;11.770;2023-02-02T04:26:12;2.27;;;1.30;;
59366;SDS011;45163;47.690;11.770;2023-02-02T04:28:38;1.40;;;1.20;;
59366;SDS011;45163;47.690;11.770;2023-02-02T04:31:03;3.03;;;1.10;;
59366;SDS011;45163;47.690;11.770;2023-02-02T04:33:29;4.53;;;1.40;;
59366;SDS011;45163;47.690;11.770;2023-02-02T04:35:55;1.27;;;1.10;;
59366;SDS011;45163;47.690;11.770;2023-02-02T04:38:21;2.53;;;1.10;;
59366;SDS011;45163;47.690;11.770;2023-02-02T04:40:47;2.40;;;1.40;;
59366;SDS011;45163;47.690;11.770;2023-02-02T04:43:14;4.30;;;1.10;;
59366;SDS011;45163;47.690;11.770;2023-02-02T04:45:39;3.53;;;1.23;;
59366;SDS011;45163;47.690;11.770;2023-02-02T04:48:06;2.97;;;1.33;;
59366;SDS011;45163;47.690;11.770;2023-02-02T04:50:32;4.50;;;1.13;;
59366;SDS011;45163;47.690;11.770;2023-02-02T04:52:59;4.90;;;1.40;;
59366;SDS011;45163;47.690;11.770;2023-02-02T04:55:25;2.00;;;1.10;;
59366;SDS011;45163;47.690;11.770;2023-02-02T04:57:51;4.03;;;1.13;;
59366;SDS011;45163;47.690;11.770;2023-02-02T05:00:17;4.33;;;1.20;;
59366;SDS011;45163;47.690;11.770;2023-02-02T05:02:43;2.97;;;1.23;;
59366;SDS011;45163;47.690;11.770;2023-02-02T05:05:10;3.87;;;1.00;;
59366;SDS011;45163;47.690;11.770;2023-02-02T05:07:38;1.20;;;1.10;;
59366;SDS011;45163;47.690;11.770;2023-02-02T05:10:05;2.13;;;1.00;;
59366;SDS011;45163;47.690;11.770;2023-02-02T05:12:33;2.50;;;1.03;;
59366;SDS011;45163;47.690;11.770;2023-02-02T05:15:00;4.23;;;1.10;;
59366;SDS011;45163;47.690;11.770;2023-02-02T05:17:28;1.50;;;0.90;;
59366;SDS011;45163;47.690;11.770;2023-02-02T05:19:53;3.57;;;0.90;;
59366;SDS011;45163;47.690;11.770;2023-02-02T05:22:19;4.40;;;1.10;;
59366;SDS011;45163;47.690;11.770;2023-02-02T05:24:45;2.07;;;0.93;;
59366;SDS011;45163;47.690;11.770;2023-02-02T05:27:11;1.23;;;0.90;;
59366;SDS011;45163;47.690;11.770;2023-02-02T05:29:37;0.97;;;0.87;;
59366;SDS011;45163;47.690;11.770;2023-02-02T05:32:03;1.20;;;1.10;;
59366;SDS011;45163;47.690;11.770;2023-02-02T05:34:29;1.67;;;0.90;;
59366;SDS011;45163;47.690;11.770;2023-02-02T05:36:55;3.53;;;1.10;;
59366;SDS011;45163;47.690;11.770;2023-02-02T05:39:21;1.80;;;1.10;;
59366;SDS011;45163;47.690;11.770;2023-02-02T05:41:47;1.83;;;0.90;;
59366;SDS011;45163;47.690;11.770;2023-02-02T05:44:13;2.43;;;1.10;;
59366;SDS011;45163;47.690;11.770;2023-02-02T05:46:39;1.27;;;1.00;;
59366;SDS011;45163;47.690;11.770;2023-02-02T05:49:06;1.83;;;0.90;;
59366;SDS011;45163;47.690;11.770;2023-02-02T05:51:38;2.50;;;1.20;;
59366;SDS011;45163;47.690;11.770;2023-02-02T05:54:07;2.43;;;1.00;;
59366;SDS011;45163;47.690;11.770;2023-02-02T05:56:33;3.17;;;0.90;;
59366;SDS011;45163;47.690;11.770;2023-02-02T05:58:59;3.33;;;1.10;;
59366;SDS011;45163;47.690;11.770;2023-02-02T06:01:25;1.30;;;1.07;;
59366;SDS011;45163;47.690;11.770;2023-02-02T06:03:51;3.37;;;1.30;;
59366;SDS011;45163;47.690;11.770;2023-02-02T06:06:17;2.53;;;0.97;;
59366;SDS011;45163;47.690;11.770;2023-02-02T06:08:43;5.40;;;1.40;;
59366;SDS011;45163;47.690;11.770;2023-02-02T06:11:10;1.20;;;1.00;;
59366;SDS011;45163;47.690;11.770;2023-02-02T06:13:37;4.03;;;1.10;;
59366;SDS011;45163;47.690;11.770;2023-02-02T06:16:03;2.30;;;1.57;;
59366;SDS011;45163;47.690;11.770;2023-02-02T06:18:29;1.80;;;0.97;;
59366;SDS011;45163;47.690;11.770;2023-02-02T06:20:59;2.83;;;1.13;;
59366;SDS011;45163;47.690;11.770;2023-02-02T06:23:26;2.13;;;1.20;;
59366;SDS011;45163;47.690;11.770;2023-02-02T06:25:52;2.50;;;1.23;;
59366;SDS011;45163;47.690;11.770;2023-02-02T06:28:18;1.07;;;1.00;;
59366;SDS011;45163;47.690;11.770;2023-02-02T06:30:44;2.87;;;1.10;;
59366;SDS011;45163;47.690;11.770;2023-02-02T06:33:10;2.40;;;1.17;;
59366;SDS011;45163;47.690;11.770;2023-02-02T06:35:36;1.67;;;1.30;;
59366;SDS011;45163;47.690;11.770;2023-02-02T06:38:02;5.83;;;1.20;;
59366;SDS011;45163;47.690;11.770;2023-02-02T06:40:28;5.53;;;1.13;;
59366;SDS011;45163;47.690;11.770;2023-02-02T06:42:57;3.40;;;1.20;;
59366;SDS011;45163;47.690;11.770;2023-02-02T06:45:25;4.57;;;1.33;;
59366;SDS011;45163;47.690;11.770;2023-02-02T06:47:52;2.40;;;1.57;;
59366;SDS011;45163;47.690;11.770;2023-02-02T06:50:18;2.40;;;1.30;;
59366;SDS011;45163;47.690;11.770;2023-02-02T06:52:48;2.00;;;1.10;;
59366;SDS011;45163;47.690;11.770;2023-02-02T06:55:14;2.53;;;1.27;;
59366;SDS011;45163;47.690;11.770;2023-02-02T06:57:41;2.90;;;1.17;;
59366;SDS011;45163;47.690;11.770;2023-02-02T07:00:07;3.57;;;1.20;;
59366;SDS011;45163;47.690;11.770;2023-02-02T07:02:33;2.73;;;1.07;;
59366;SDS011;45163;47.690;11.770;2023-02-02T07:05:00;2.60;;;1.20;;
59366;SDS011;45163;47.690;11.770;2023-02-02T07:07:26;1.20;;;1.10;;
59366;SDS011;45163;47.690;11.770;2023-02-02T07:09:55;4.03;;;1.17;;
59366;SDS011;45163;47.690;11.770;2023-02-02T07:12:21;3.17;;;1.40;;
59366;SDS011;45163;47.690;11.770;2023-02-02T07:14:49;4.53;;;1.50;;
59366;SDS011;45163;47.690;11.770;2023-02-02T07:17:15;3.17;;;1.40;;
59366;SDS011;45163;47.690;11.770;2023-02-02T07:19:41;7.93;;;1.43;;
59366;SDS011;45163;47.690;11.770;2023-02-02T07:22:07;3.83;;;1.90;;
59366;SDS011;45163;47.690;11.770;2023-02-02T07:24:33;1.53;;;1.30;;
59366;SDS011;45163;47.690;11.770;2023-02-02T07:26:59;5.30;;;1.40;;
59366;SDS011;45163;47.690;11.770;2023-02-02T07:29:24;3.60;;;1.37;;
59366;SDS011;45163;47.690;11.770;2023-02-02T07:31:51;4.70;;;1.60;;
59366;SDS011;45163;47.690;11.770;2023-02-02T07:34:17;4.57;;;1.57;;
59366;SDS011;45163;47.690;11.770;2023-02-02T07:36:43;3.07;;;1.40;;
59366;SDS011;45163;47.690;11.770;2023-02-02T07:39:10;5.47;;;1.30;;
59366;SDS011;45163;47.690;11.770;2023-02-02T07:41:36;1.90;;;1.30;;
59366;SDS011;45163;47.690;11.770;2023-02-02T07:44:02;3.07;;;1.40;;
59366;SDS011;45163;47.690;11.770;2023-02-02T07:46:29;2.37;;;1.40;;
59366;SDS011;45163;47.690;11.770;2023-02-02T07:48:56;2.60;;;1.50;;
59366;SDS011;45163;47.690;11.770;2023-02-02T07:51:22;2.90;;;1.50;;
59366;SDS011;45163;47.690;11.770;2023-02-02T07:53:50;3.30;;;1.43;;
59366;SDS011;45163;47.690;11.770;2023-02-02T07:56:22;4.83;;;1.50;;
59366;SDS011;45163;47.690;11.770;2023-02-02T07:58:55;4.83;;;1.30;;
59366;SDS011;45163;47.690;11.770;2023-02-02T08:01:22;3.57;;;1.07;;
59366;SDS011;45163;47.690;11.770;2023-02-02T08:03:50;3.13;;;1.60;;
59366;SDS011;45163;47.690;11.770;2023-02-02T08:06:18;1.53;;;1.20;;
59366;SDS011;45163;47.690;11.770;2023-02-02T08:08:47;1.50;;;1.00;;
59366;SDS011;45163;47.690;11.770;2023-02-02T08:11:14;2.70;;;1.20;;
59366;SDS011;45163;47.690;11.770;2023-02-02T08:13:42;2.13;;;1.20;;
59366;SDS011;45163;47.690;11.770;2023-02-02T08:16:09;3.43;;;1.67;;
59366;SDS011;45163;47.690;11.770;2023-02-02T08:18:36;2.37;;;1.23;;
59366;SDS011;45163;47.690;11.770;2023-02-02T08:21:03;2.23;;;1.20;;
59366;SDS011;45163;47.690;11.770;2023-02-02T08:23:30;3.10;;;2.40;;
59366;SDS011;45163;47.690;11.770;2023-02-02T08:28:34;3.37;;;1.60;;
59366;SDS011;45163;47.690;11.770;2023-02-02T08:31:08;1.67;;;1.57;;
59366;SDS011;45163;47.690;11.770;2023-02-02T08:33:36;2.00;;;1.43;;
59366;SDS011;45163;47.690;11.770;2023-02-02T08:36:02;3.60;;;1.60;;
59366;SDS011;45163;47.690;11.770;2023-02-02T08:38:29;4.53;;;1.57;;
59366;SDS011;45163;47.690;11.770;2023-02-02T08:40:55;4.27;;;1.50;;
59366;SDS011;45163;47.690;11.770;2023-02-02T08:43:28;1.97;;;1.40;;
59366;SDS011;45163;47.690;11.770;2023-02-02T08:45:54;1.90;;;1.60;;
59366;SDS011;45163;47.690;11.770;2023-02-02T08:48:20;3.03;;;1.60;;
59366;SDS011;45163;47.690;11.770;2023-02-02T08:50:56;1.80;;;1.47;;
59366;SDS011;45163;47.690;11.770;2023-02-02T08:53:23;2.00;;;1.40;;
59366;SDS011;45163;47.690;11.770;2023-02-02T08:55:57;3.03;;;1.37;;
59366;SDS011;45163;47.690;11.770;2023-02-02T08:58:23;3.37;;;1.30;;
59366;SDS011;45163;47.690;11.770;2023-02-02T09:00:50;2.13;;;1.10;;
59366;SDS011;45163;47.690;11.770;2023-02-02T09:03:15;3.03;;;1.07;;
59366;SDS011;45163;47.690;11.770;2023-02-02T09:05:41;1.10;;;1.00;;
59366;SDS011;45163;47.690;11.770;2023-02-02T09:08:08;2.20;;;1.50;;
59366;SDS011;45163;47.690;11.770;2023-02-02T09:10:35;2.73;;;1.00;;
59366;SDS011;45163;47.690;11.770;2023-02-02T09:13:02;1.20;;;1.00;;
59366;SDS011;45163;47.690;11.770;2023-02-02T09:15:29;1.63;;;1.10;;
59366;SDS011;45163;47.690;11.770;2023-02-02T09:17:55;2.90;;;1.73;;
59366;SDS011;45163;47.690;11.770;2023-02-02T09:20:21;1.40;;;1.30;;
59366;SDS011;45163;47.690;11.770;2023-02-02T09:22:47;2.73;;;1.13;;
59366;SDS011;45163;47.690;11.770;2023-02-02T09:25:13;1.60;;;1.27;;
59366;SDS011;45163;47.690;11.770;2023-02-02T09:27:40;1.17;;;1.00;;
59366;SDS011;45163;47.690;11.770;2023-02-02T09:30:06;3.73;;;1.00;;
59366;SDS011;45163;47.690;11.770;2023-02-02T09:32:33;1.77;;;1.30;;
59366;SDS011;45163;47.690;11.770;2023-02-02T09:34:59;1.43;;;1.10;;
59366;SDS011;45163;47.690;11.770;2023-02-02T09:37:26;4.80;;;1.40;;
59366;SDS011;45163;47.690;11.770;2023-02-02T09:39:52;1.47;;;1.10;;
59366;SDS011;45163;47.690;11.770;2023-02-02T09:47:44;2.37;;;1.03;;
59366;SDS011;45163;47.690;11.770;2023-02-02T09:50:21;1.30;;;1.07;;
59366;SDS011;45163;47.690;11.770;2023-02-02T09:53:55;1.10;;;0.93;;
59366;SDS011;45163;47.690;11.770;2023-02-02T09:56:21;1.17;;;0.90;;
59366;SDS011;45163;47.690;11.770;2023-02-02T09:58:54;1.40;;;1.13;;
59366;SDS011;45163;47.690;11.770;2023-02-02T10:01:23;5.33;;;2.10;;
59366;SDS011;45163;47.690;11.770;2023-02-02T10:04:03;2.00;;;1.10;;
59366;SDS011;45163;47.690;11.770;2023-02-02T10:06:37;1.70;;;1.30;;
59366;SDS011;45163;47.690;11.770;2023-02-02T10:11:57;1.10;;;1.00;;
59366;SDS011;45163;47.690;11.770;2023-02-02T10:17:33;1.10;;;1.00;;
59366;SDS011;45163;47.690;11.770;2023-02-02T10:22:46;1.17;;;0.80;;
59366;SDS011;45163;47.690;11.770;2023-02-02T10:25:13;1.33;;;1.00;;
59366;SDS011;45163;47.690;11.770;2023-02-02T10:27:42;4.30;;;2.20;;
59366;SDS011;45163;47.690;11.770;2023-02-02T10:30:18;9.10;;;3.87;;
59366;SDS011;45163;47.690;11.770;2023-02-02T10:33:00;6.30;;;3.37;;
59366;SDS011;45163;47.690;11.770;2023-02-02T10:35:42;7.30;;;3.13;;
59366;SDS011;45163;47.690;11.770;2023-02-02T10:46:35;1.70;;;1.40;;
59366;SDS011;45163;47.690;11.770;2023-02-02T10:51:31;2.13;;;1.27;;
59366;SDS011;45163;47.690;11.770;2023-02-02T10:53:58;1.90;;;1.40;;
59366;SDS011;45163;47.690;11.770;2023-02-02T10:56:29;2.90;;;1.40;;
59366;SDS011;45163;47.690;11.770;2023-02-02T11:01:42;2.03;;;1.20;;
59366;SDS011;45163;47.690;11.770;2023-02-02T11:04:09;1.57;;;1.33;;
59366;SDS011;45163;47.690;11.770;2023-02-02T11:06:54;2.57;;;1.37;;
59366;SDS011;45163;47.690;11.770;2023-02-02T11:09:25;2.60;;;1.00;;
59366;SDS011;45163;47.690;11.770;2023-02-02T11:15:05;2.37;;;1.00;;
59366;SDS011;45163;47.690;11.770;2023-02-02T11:17:33;2.30;;;1.10;;
59366;SDS011;45163;47.690;11.770;2023-02-02T11:20:00;1.63;;;1.20;;
59366;SDS011;45163;47.690;11.770;2023-02-02T11:22:45;2.10;;;1.30;;
59366;SDS011;45163;47.690;11.770;2023-02-02T11:25:26;1.67;;;1.00;;
59366;SDS011;45163;47.690;11.770;2023-02-02T11:27:57;1.90;;;0.87;;
59366;SDS011;45163;47.690;11.770;2023-02-02T11:30:26;3.80;;;1.20;;
59366;SDS011;45163;47.690;11.770;2023-02-02T11:32:53;1.13;;;1.00;;
59366;SDS011;45163;47.690;11.770;2023-02-02T11:35:21;1.00;;;1.00;;
59366;SDS011;45163;47.690;11.770;2023-02-02T11:40:38;1.53;;;1.10;;
59366;SDS011;45163;47.690;11.770;2023-02-02T11:43:51;1.70;;;1.13;;
59366;SDS011;45163;47.690;11.770;2023-02-02T11:45:55;5.33;;;1.67;;
59366;SDS011;45163;47.690;11.770;2023-02-02T11:48:28;6.40;;;2.47;;
59366;SDS011;45163;47.690;11.770;2023-02-02T11:50:57;2.97;;;1.57;;
59366;SDS011;45163;47.690;11.770;2023-02-02T11:56:07;9.73;;;3.13;;
59366;SDS011;45163;47.690;11.770;2023-02-02T12:03:55;2.50;;;1.30;;
59366;SDS011;45163;47.690;11.770;2023-02-02T12:06:35;6.77;;;2.33;;
59366;SDS011;45163;47.690;11.770;2023-02-02T12:09:10;2.07;;;1.20;;
59366;SDS011;45163;47.690;11.770;2023-02-02T12:11:41;3.27;;;1.50;;
59366;SDS011;45163;47.690;11.770;2023-02-02T12:31:02;3.90;;;1.77;;
59366;SDS011;45163;47.690;11.770;2023-02-02T12:38:45;4.77;;;2.13;;
59366;SDS011;45163;47.690;11.770;2023-02-02T12:49:17;2.93;;;1.20;;
59366;SDS011;45163;47.690;11.770;2023-02-02T12:55:03;3.37;;;1.07;;
59366;SDS011;45163;47.690;11.770;2023-02-02T13:08:21;2.00;;;1.13;;
59366;SDS011;45163;47.690;11.770;2023-02-02T13:11:02;1.23;;;0.97;;
59366;SDS011;45163;47.690;11.770;2023-02-02T13:13:59;2.10;;;1.30;;
59366;SDS011;45163;47.690;11.770;2023-02-02T13:16:47;0.80;;;0.80;;
59366;SDS011;45163;47.690;11.770;2023-02-02T13:21:59;1.10;;;1.00;;
59366;SDS011;45163;47.690;11.770;2023-02-02T13:24:28;0.70;;;0.70;;
59366;SDS011;45163;47.690;11.770;2023-02-02T13:26:58;0.70;;;0.70;;
59366;SDS011;45163;47.690;11.770;2023-02-02T13:31:56;1.47;;;0.90;;
59366;SDS011;45163;47.690;11.770;2023-02-02T13:37:54;0.60;;;0.60;;
59366;SDS011;45163;47.690;11.770;2023-02-02T14:00:14;0.70;;;0.70;;
59366;SDS011;45163;47.690;11.770;2023-02-02T14:02:45;0.70;;;0.70;;
59366;SDS011;45163;47.690;11.770;2023-02-02T14:05:21;0.73;;;0.60;;
59366;SDS011;45163;47.690;11.770;2023-02-02T14:07:56;1.20;;;0.97;;
59366;SDS011;45163;47.690;11.770;2023-02-02T14:10:29;2.00;;;1.47;;
59366;SDS011;45163;47.690;11.770;2023-02-02T14:13:08;0.93;;;0.83;;
59366;SDS011;45163;47.690;11.770;2023-02-02T14:15:57;1.70;;;1.07;;
59366;SDS011;45163;47.690;11.770;2023-02-02T14:23:59;0.73;;;0.73;;
59366;SDS011;45163;47.690;11.770;2023-02-02T14:31:58;1.30;;;1.20;;
59366;SDS011;45163;47.690;11.770;2023-02-02T14:34:47;3.67;;;1.40;;
59366;SDS011;45163;47.690;11.770;2023-02-02T14:48:40;2.40;;;1.07;;
59366;SDS011;45163;47.690;11.770;2023-02-02T14:53:49;1.30;;;0.90;;
59366;SDS011;45163;47.690;11.770;2023-02-02T14:56:16;1.60;;;0.60;;
59366;SDS011;45163;47.690;11.770;2023-02-02T14:58:44;0.80;;;0.80;;
59366;SDS011;45163;47.690;11.770;2023-02-02T15:03:53;0.70;;;0.70;;
59366;SDS011;45163;47.690;11.770;2023-02-02T15:06:39;0.63;;;0.60;;
59366;SDS011;45163;47.690;11.770;2023-02-02T15:14:24;0.80;;;0.80;;
59366;SDS011;45163;47.690;11.770;2023-02-02T15:17:00;1.43;;;0.70;;
59366;SDS011;45163;47.690;11.770;2023-02-02T15:19:31;1.23;;;0.70;;
59366;SDS011;45163;47.690;11.770;2023-02-02T15:22:20;3.13;;;1.90;;
59366;SDS011;45163;47.690;11.770;2023-02-02T15:24:49;0.80;;;0.80;;
59366;SDS011;45163;47.690;11.770;2023-02-02T15:27:16;0.80;;;0.80;;
59366;SDS011;45163;47.690;11.770;2023-02-02T15:29:43;0.90;;;0.80;;
59366;SDS011;45163;47.690;11.770;2023-02-02T15:32:14;0.70;;;0.70;;
59366;SDS011;45163;47.690;11.770;2023-02-02T15:34:49;1.07;;;0.90;;
59366;SDS011;45163;47.690;11.770;2023-02-02T15:37:19;1.40;;;0.83;;
59366;SDS011;45163;47.690;11.770;2023-02-02T15:39:54;0.63;;;0.63;;
59366;SDS011;45163;47.690;11.770;2023-02-02T15:42:26;0.77;;;0.77;;
59366;SDS011;45163;47.690;11.770;2023-02-02T15:47:55;0.73;;;0.73;;
59366;SDS011;45163;47.690;11.770;2023-02-02T15:50:23;2.43;;;0.80;;
59366;SDS011;45163;47.690;11.770;2023-02-02T15:52:50;0.77;;;0.77;;
59366;SDS011;45163;47.690;11.770;2023-02-02T15:57:48;1.23;;;1.13;;
59366;SDS011;45163;47.690;11.770;2023-02-02T16:08:02;0.90;;;0.90;;
59366;SDS011;45163;47.690;11.770;2023-02-02T16:10:31;2.00;;;1.20;;
59366;SDS011;45163;47.690;11.770;2023-02-02T16:12:58;0.90;;;0.90;;
59366;SDS011;45163;47.690;11.770;2023-02-02T16:15:25;0.83;;;0.83;;
59366;SDS011;45163;47.690;11.770;2023-02-02T16:18:12;1.00;;;1.00;;
59366;SDS011;45163;47.690;11.770;2023-02-02T16:20:40;2.63;;;1.10;;
59366;SDS011;45163;47.690;11.770;2023-02-02T16:23:10;1.67;;;1.20;;
59366;SDS011;45163;47.690;11.770;2023-02-02T16:25:50;1.63;;;1.47;;
59366;SDS011;45163;47.690;11.770;2023-02-02T16:28:20;1.97;;;1.53;;
59366;SDS011;45163;47.690;11.770;2023-02-02T16:30:47;1.20;;;1.10;;
59366;SDS011;45163;47.690;11.770;2023-02-02T16:33:29;1.20;;;1.10;;
59366;SDS011;45163;47.690;11.770;2023-02-02T16:38:46;1.07;;;0.97;;
59366;SDS011;45163;47.690;11.770;2023-02-02T16:41:23;1.17;;;1.07;;
59366;SDS011;45163;47.690;11.770;2023-02-02T16:43:50;4.43;;;1.00;;
59366;SDS011;45163;47.690;11.770;2023-02-02T16:46:38;3.07;;;1.60;;
59366;SDS011;45163;47.690;11.770;2023-02-02T16:49:13;1.73;;;0.90;;
59366;SDS011;45163;47.690;11.770;2023-02-02T16:51:46;1.77;;;1.10;;
59366;SDS011;45163;47.690;11.770;2023-02-02T16:54:31;2.03;;;1.13;;
59366;SDS011;45163;47.690;11.770;2023-02-02T16:57:00;1.30;;;1.10;;
59366;SDS011;45163;47.690;11.770;2023-02-02T16:59:32;1.93;;;1.00;;
59366;SDS011;45163;47.690;11.770;2023-02-02T17:04:47;1.40;;;1.30;;
59366;SDS011;45163;47.690;11.770;2023-02-02T17:07:16;1.60;;;1.50;;
59366;SDS011;45163;47.690;11.770;2023-02-02T17:09:43;1.60;;;1.43;;
59366;SDS011;45163;47.690;11.770;2023-02-02T17:14:51;3.00;;;1.37;;
59366;SDS011;45163;47.690;11.770;2023-02-02T17:17:21;1.60;;;1.20;;
59366;SDS011;45163;47.690;11.770;2023-02-02T17:19:47;1.63;;;1.20;;
59366;SDS011;45163;47.690;11.770;2023-02-02T17:22:14;1.37;;;1.17;;
59366;SDS011;45163;47.690;11.770;2023-02-02T17:24:43;1.50;;;1.27;;
59366;SDS011;45163;47.690;11.770;2023-02-02T17:27:12;1.67;;;1.57;;
59366;SDS011;45163;47.690;11.770;2023-02-02T17:29:42;3.00;;;1.70;;
59366;SDS011;45163;47.690;11.770;2023-02-02T17:32:11;5.83;;;3.17;;
59366;SDS011;45163;47.690;11.770;2023-02-02T17:34:38;7.43;;;4.47;;
59366;SDS011;45163;47.690;11.770;2023-02-02T17:37:04;2.50;;;2.07;;
59366;SDS011;45163;47.690;11.770;2023-02-02T17:39:30;2.77;;;1.40;;
59366;SDS011;45163;47.690;11.770;2023-02-02T17:41:56;3.03;;;1.63;;
59366;SDS011;45163;47.690;11.770;2023-02-02T17:44:22;1.20;;;1.10;;
59366;SDS011;45163;47.690;11.770;2023-02-02T17:46:47;2.70;;;1.63;;
59366;SDS011;45163;47.690;11.770;2023-02-02T17:49:13;1.53;;;1.40;;
59366;SDS011;45163;47.690;11.770;2023-02-02T17:51:39;3.03;;;1.40;;
59366;SDS011;45163;47.690;11.770;2023-02-02T17:54:08;2.23;;;1.50;;
59366;SDS011;45163;47.690;11.770;2023-02-02T17:56:36;3.50;;;1.70;;
59366;SDS011;45163;47.690;11.770;2023-02-02T17:59:03;3.13;;;1.40;;
59366;SDS011;45163;47.690;11.770;2023-02-02T18:01:29;2.73;;;1.40;;